Time;durP1;ratioP1;P1;durP2;ratioP2;P2;SDS_P1;SDS_P2;PMS_P1;PMS_P2;Temp;Humidity;BMP_temperature;BMP_pressure;BME280_temperature;BME280_humidity;BME280_pressure;Samples;Min_cycle;Max_cycle;Signal;HPM_P1;HPM_P2
2022/11/28 00:01:49;;;;;;;;;;;;;;;8.14;71.81;101395.00;5381136;32;34372;-63
2022/11/28 00:04:51;;;;;;;;;;;;;;;7.94;72.72;101394.41;5350442;32;34963;-71
2022/11/28 00:07:54;;;;;;;;;;;;;;;7.58;75.15;101398.28;5363788;32;35653;-62
2022/11/28 00:10:56;;;;;;;;;;;;;;;8.24;72.14;101398.34;5345872;32;35275;-62
2022/11/28 00:13:58;;;;;;;;;;;;;;;8.45;71.06;101401.62;5357223;32;34972;-62
2022/11/28 00:17:00;;;;;;;;;;;;;;;8.33;71.10;101397.38;5351499;32;35629;-73
2022/11/28 00:20:02;;;;;;;;;;;;;;;8.07;71.39;101401.22;5323468;32;43669;-64
2022/11/28 00:23:04;;;;;;;;;;;;;;;8.07;72.22;101401.22;5361302;32;35106;-63
2022/11/28 00:26:16;;;;;;;;;;;;;;;7.99;72.91;101394.34;5346370;32;35363;-73
2022/11/28 00:29:18;;;;;;;;;;;;;;;7.35;75.82;101403.78;5362751;32;35027;-74
2022/11/28 00:32:20;;;;;;;;;;;;;;;7.50;74.00;101398.38;5346363;32;35059;-74
2022/11/28 00:35:22;;;;;;;;;;;;;;;8.51;71.51;101393.69;5351370;32;34642;-75
2022/11/28 00:38:23;;;;;;;;;;;;;;;7.90;71.67;101402.31;5353159;32;35318;-63
2022/11/28 00:41:27;;;;;;;;;;;;;;;8.17;72.48;101406.31;5341370;32;34939;-75
2022/11/28 00:44:29;;;;;;;;;;;;;;;7.84;74.19;101404.09;5362947;32;34998;-73
2022/11/28 00:47:31;;;;;;;;;;;;;;;8.09;72.59;101414.28;5363784;32;43234;-71
2022/11/28 00:50:33;;;;;;;;;;;;;;;8.72;68.95;101405.59;5379200;32;34404;-73
2022/11/28 00:53:35;;;;;;;;;;;;;;;8.72;68.51;101403.84;5363240;32;35603;-63
2022/11/28 00:56:37;;;;;;;;;;;;;;;8.51;69.23;101398.91;5356531;32;35516;-72
2022/11/28 00:59:39;;;;;;;;;;;;;;;7.97;70.63;101398.72;5376117;32;34982;-62
2022/11/28 01:02:41;;;;;;;;;;;;;;;8.07;71.74;101395.97;5363071;32;34252;-73
2022/11/28 01:05:43;;;;;;;;;;;;;;;8.10;70.36;101410.78;5363112;32;34596;-63
2022/11/28 01:08:45;;;;;;;;;;;;;;;8.57;69.28;101398.84;5345544;32;35715;-74
2022/11/28 01:11:48;;;;;;;;;;;;;;;8.01;70.01;101409.16;5362478;32;35441;-63
2022/11/28 01:14:49;;;;;;;;;;;;;;;8.21;70.21;101405.41;5344870;32;34595;-62
2022/11/28 01:17:51;;;;;;;;;;;;;;;8.81;67.88;101393.19;5349622;32;34654;-75
2022/11/28 01:20:53;;;;;;;;;;;;;;;9.04;66.82;101394.59;5335301;32;35790;-63
2022/11/28 01:23:55;;;;;;;;;;;;;;;8.61;68.08;101393.50;5344807;32;34743;-73
2022/11/28 01:26:57;;;;;;;;;;;;;;;8.44;68.81;101395.53;5349651;32;35098;-61
2022/11/28 01:29:59;;;;;;;;;;;;;;;7.79;71.09;101402.41;5345946;32;34879;-74
2022/11/28 01:33:00;;;;;;;;;;;;;;;8.85;67.99;101397.50;5361019;32;43037;-64
2022/11/28 01:36:02;;;;;;;;;;;;;;;8.85;67.12;101391.41;5346579;32;35082;-64
2022/11/28 01:39:04;;;;;;;;;;;;;;;8.70;67.61;101370.69;5343983;32;34967;-62
2022/11/28 01:42:06;;;;;;;;;;;;;;;8.34;69.30;101392.13;5342643;32;35326;-73
2022/11/28 01:45:13;;;;;;;;;;;;;;;7.85;71.82;101391.88;5361782;32;35108;-71
2022/11/28 01:48:16;;;;;;;;;;;;;;;8.65;68.10;101374.22;5381457;32;36386;-73
2022/11/28 01:51:18;;;;;;;;;;;;;;;8.41;67.50;101375.47;5350622;32;34320;-62
2022/11/28 01:54:22;;;;;;;;;;;;;;;8.39;67.90;101371.12;5363979;32;35466;-75
2022/11/28 01:57:24;;;;;;;;;;;;;;;7.86;69.03;101364.84;5363033;32;34282;-75
2022/11/28 02:00:26;;;;;;;;;;;;;;;8.43;68.40;101351.84;5349668;32;35453;-63
2022/11/28 02:03:44;;;;;;;;;;;;;;;8.73;66.57;101349.66;5362283;32;34868;-63
2022/11/28 02:06:46;;;;;;;;;;;;;;;8.37;68.06;101351.94;5345905;32;34895;-74
2022/11/28 02:09:48;;;;;;;;;;;;;;;8.11;68.31;101354.88;5361149;32;34255;-64
2022/11/28 02:13:02;;;;;;;;;;;;;;;8.01;69.61;101348.94;5344977;32;35942;-63
2022/11/28 02:16:13;;;;;;;;;;;;;;;7.72;71.03;101345.81;5351169;32;45360;-73
2022/11/28 02:19:33;;;;;;;;;;;;;;;7.49;71.63;101349.56;5343147;32;34628;-73
2022/11/28 02:22:50;;;;;;;;;;;;;;;8.40;67.99;101349.28;5340751;32;47952;-62
2022/11/28 02:26:08;;;;;;;;;;;;;;;8.13;68.61;101338.28;5360339;32;34944;-72
2022/11/28 02:29:12;;;;;;;;;;;;;;;8.41;66.94;101327.44;5345203;32;44788;-62
2022/11/28 02:32:17;;;;;;;;;;;;;;;8.32;67.24;101324.94;5344701;32;34346;-62
2022/11/28 02:35:51;;;;;;;;;;;;;;;8.09;68.09;101336.59;5361877;32;34650;-64
2022/11/28 02:38:57;;;;;;;;;;;;;;;8.22;67.59;101329.44;5314609;32;35253;-63
2022/11/28 02:42:02;;;;;;;;;;;;;;;8.26;67.53;101330.25;5344611;32;34323;-63
2022/11/28 02:45:33;;;;;;;;;;;;;;;8.29;67.18;101323.22;5341951;32;44853;-63
2022/11/28 02:48:41;;;;;;;;;;;;;;;8.18;67.13;101322.53;5327507;32;44834;-62
2022/11/28 02:51:45;;;;;;;;;;;;;;;8.19;67.39;101319.00;5362485;32;34403;-73
2022/11/28 02:54:47;;;;;;;;;;;;;;;8.05;68.02;101310.47;5330026;32;34941;-75
2022/11/28 02:57:50;;;;;;;;;;;;;;;7.74;69.08;101323.12;5348354;32;34510;-63
2022/11/28 03:00:52;;;;;;;;;;;;;;;8.12;68.01;101320.84;5349026;32;35558;-73
2022/11/28 03:04:13;;;;;;;;;;;;;;;7.12;71.27;101316.84;5349742;32;35281;-62
2022/11/28 03:07:28;;;;;;;;;;;;;;;8.05;68.02;101303.50;5364301;32;34956;-73
2022/11/28 03:10:32;;;;;;;;;;;;;;;7.96;67.81;101305.38;5332793;32;33580;-74
2022/11/28 03:13:39;;;;;;;;;;;;;;;7.97;67.57;101315.81;5348784;32;44873;-73
2022/11/28 03:16:45;;;;;;;;;;;;;;;7.85;68.63;101315.97;5346640;32;34432;-73
2022/11/28 03:19:55;;;;;;;;;;;;;;;7.94;68.30;101309.78;5331731;32;35543;-74
2022/11/28 03:22:59;;;;;;;;;;;;;;;8.07;67.63;101312.19;5347411;32;35052;-62
2022/11/28 03:26:04;;;;;;;;;;;;;;;8.06;67.31;101306.97;5332572;32;44517;-62
2022/11/28 03:29:15;;;;;;;;;;;;;;;8.20;65.76;101296.31;5363223;32;34762;-63
2022/11/28 03:32:18;;;;;;;;;;;;;;;7.99;66.58;101293.12;5332367;32;35415;-63
2022/11/28 03:35:21;;;;;;;;;;;;;;;7.64;67.81;101293.56;5345253;32;35490;-74
2022/11/28 03:38:27;;;;;;;;;;;;;;;7.94;67.04;101287.06;5347410;32;35321;-72
2022/11/28 03:41:40;;;;;;;;;;;;;;;8.19;65.91;101277.13;5329410;32;34856;-71
2022/11/28 03:44:44;;;;;;;;;;;;;;;8.20;65.82;101272.75;5377530;32;35071;-63
2022/11/28 03:47:47;;;;;;;;;;;;;;;8.28;65.31;101268.25;5351956;32;34347;-75
2022/11/28 03:51:09;;;;;;;;;;;;;;;8.19;66.21;101264.03;5367339;32;34819;-63
2022/11/28 03:54:12;;;;;;;;;;;;;;;8.46;65.18;101251.41;5352845;32;37261;-64
2022/11/28 03:57:27;;;;;;;;;;;;;;;8.28;65.83;101250.78;5364692;32;36751;-63
2022/11/28 04:00:29;;;;;;;;;;;;;;;8.44;65.64;101246.19;5367648;32;34805;-75
2022/11/28 04:03:31;;;;;;;;;;;;;;;8.29;65.67;101243.78;5345481;32;47807;-62
2022/11/28 04:06:35;;;;;;;;;;;;;;;8.04;66.16;101223.19;5363493;32;34837;-73
2022/11/28 04:09:45;;;;;;;;;;;;;;;8.00;67.18;101244.25;5331957;32;34901;-62
2022/11/28 04:13:23;;;;;;;;;;;;;;;7.64;68.66;101243.84;5351309;32;35653;-73
2022/11/28 04:16:47;;;;;;;;;;;;;;;7.72;68.97;101244.59;5305990;32;36114;-73
2022/11/28 04:19:57;;;;;;;;;;;;;;;7.79;69.05;101237.53;5316479;32;35664;-62
2022/11/28 04:23:00;;;;;;;;;;;;;;;7.99;67.87;101235.53;5344486;32;35133;-63
2022/11/28 04:26:04;;;;;;;;;;;;;;;7.91;67.18;101232.12;5335466;32;44820;-74
2022/11/28 04:29:07;;;;;;;;;;;;;;;7.95;67.14;101227.72;5332230;32;35146;-73
2022/11/28 04:32:09;;;;;;;;;;;;;;;7.91;67.12;101226.91;5343069;32;34445;-62
2022/11/28 04:35:12;;;;;;;;;;;;;;;7.87;67.45;101231.31;5343788;32;35389;-73
2022/11/28 04:38:14;;;;;;;;;;;;;;;7.72;67.78;101226.28;5346013;32;34966;-63
2022/11/28 04:41:17;;;;;;;;;;;;;;;7.55;68.40;101229.16;5329307;32;36048;-73
2022/11/28 04:44:30;;;;;;;;;;;;;;;8.09;66.13;101231.84;5361017;32;34541;-63
2022/11/28 04:47:32;;;;;;;;;;;;;;;7.75;67.36;101225.41;5361925;32;44600;-72
2022/11/28 04:50:41;;;;;;;;;;;;;;;8.03;66.38;101231.09;5351194;32;34357;-74
2022/11/28 04:54:02;;;;;;;;;;;;;;;7.78;67.07;101227.97;5367353;32;34995;-61
2022/11/28 04:57:16;;;;;;;;;;;;;;;7.75;67.28;101225.41;5364940;32;44546;-62
2022/11/28 05:00:18;;;;;;;;;;;;;;;7.78;67.14;101222.72;5371862;32;35213;-72
2022/11/28 05:03:20;;;;;;;;;;;;;;;7.73;68.17;101235.91;5369298;32;35701;-73
2022/11/28 05:06:23;;;;;;;;;;;;;;;7.53;68.30;101230.03;5331550;32;34819;-72
2022/11/28 05:09:25;;;;;;;;;;;;;;;7.53;68.96;101230.91;5347975;32;35695;-73
2022/11/28 05:12:26;;;;;;;;;;;;;;;7.40;69.52;101221.50;5337568;32;34448;-63
2022/11/28 05:15:28;;;;;;;;;;;;;;;7.27;70.02;101228.62;5362286;32;34678;-71
2022/11/28 05:18:30;;;;;;;;;;;;;;;7.42;69.49;101232.81;5337376;32;35056;-74
2022/11/28 05:21:32;;;;;;;;;;;;;;;7.46;69.39;101234.50;5338956;32;44619;-62
2022/11/28 05:24:34;;;;;;;;;;;;;;;7.58;69.20;101234.34;5355403;32;36158;-73
2022/11/28 05:27:36;;;;;;;;;;;;;;;7.65;68.67;101232.50;5346623;32;35431;-73
2022/11/28 05:30:38;;;;;;;;;;;;;;;7.38;69.60;101228.50;5362074;32;35435;-73
2022/11/28 05:33:39;;;;;;;;;;;;;;;7.48;69.44;101231.88;5345274;32;34893;-63
2022/11/28 05:36:41;;;;;;;;;;;;;;;7.25;70.48;101234.75;5361465;32;35017;-73
2022/11/28 05:39:43;;;;;;;;;;;;;;;7.11;71.99;101236.69;5340849;32;35403;-63
2022/11/28 05:42:46;;;;;;;;;;;;;;;7.40;70.71;101237.19;5342374;32;34783;-72
2022/11/28 05:45:47;;;;;;;;;;;;;;;7.51;68.69;101251.00;5375372;32;35142;-62
2022/11/28 05:48:50;;;;;;;;;;;;;;;7.34;69.11;101258.19;5364340;32;35584;-72
2022/11/28 05:51:51;;;;;;;;;;;;;;;7.07;70.76;101260.22;5375244;32;35456;-63
2022/11/28 05:54:53;;;;;;;;;;;;;;;7.84;68.27;101259.28;5359629;32;34804;-64
2022/11/28 05:57:55;;;;;;;;;;;;;;;7.63;68.37;101264.81;5368870;32;34933;-73
2022/11/28 06:00:57;;;;;;;;;;;;;;;7.77;68.26;101262.88;5332545;32;34649;-71
2022/11/28 06:03:59;;;;;;;;;;;;;;;7.87;67.01;101251.41;5351807;32;34981;-71
2022/11/28 06:07:01;;;;;;;;;;;;;;;7.55;68.12;101259.69;5356000;32;44915;-63
2022/11/28 06:10:04;;;;;;;;;;;;;;;7.89;67.04;101254.84;5344838;32;34950;-73
2022/11/28 06:13:06;;;;;;;;;;;;;;;7.83;66.66;101257.56;5346736;32;36284;-63
2022/11/28 06:16:08;;;;;;;;;;;;;;;7.47;68.43;101256.28;5331254;32;34418;-74
2022/11/28 06:19:11;;;;;;;;;;;;;;;7.27;69.00;101253.91;5335401;32;35036;-63
2022/11/28 06:22:13;;;;;;;;;;;;;;;7.38;68.44;101259.88;5323396;32;35145;-74
2022/11/28 06:25:15;;;;;;;;;;;;;;;7.47;67.81;101256.28;5337459;32;35037;-72
2022/11/28 06:28:17;;;;;;;;;;;;;;;6.72;70.95;101265.81;5350564;32;35456;-63
2022/11/28 06:31:19;;;;;;;;;;;;;;;6.89;70.18;101267.37;5341486;32;35594;-64
2022/11/28 06:34:22;;;;;;;;;;;;;;;7.17;68.88;101263.63;5364170;32;34901;-64
2022/11/28 06:37:24;;;;;;;;;;;;;;;6.98;70.36;101268.19;5340884;32;34370;-71
2022/11/28 06:40:26;;;;;;;;;;;;;;;7.30;68.65;101265.22;5353966;32;34883;-62
2022/11/28 06:43:29;;;;;;;;;;;;;;;7.28;69.32;101267.00;5348426;32;36027;-70
2022/11/28 06:46:31;;;;;;;;;;;;;;;7.53;67.57;101264.91;5344078;32;45790;-62
2022/11/28 06:49:33;;;;;;;;;;;;;;;7.20;68.49;101267.94;5359056;32;36300;-64
2022/11/28 06:52:35;;;;;;;;;;;;;;;7.38;68.17;101272.97;5349142;32;34288;-63
2022/11/28 06:55:37;;;;;;;;;;;;;;;7.15;69.28;101277.56;5351629;32;34491;-61
2022/11/28 06:58:39;;;;;;;;;;;;;;;7.44;68.03;101275.50;5341244;32;34519;-77
2022/11/28 07:01:41;;;;;;;;;;;;;;;6.74;69.89;101282.34;5359505;32;34265;-62
2022/11/28 07:04:43;;;;;;;;;;;;;;;7.64;67.12;101280.50;5325767;32;35113;-62
2022/11/28 07:07:45;;;;;;;;;;;;;;;7.28;67.46;101289.66;5349609;32;34601;-62
2022/11/28 07:10:56;;;;;;;;;;;;;;;7.43;67.14;101265.94;5361972;32;34215;-64
2022/11/28 07:13:59;;;;;;;;;;;;;;;7.66;66.35;101275.22;5350297;32;34274;-63
2022/11/28 07:17:01;;;;;;;;;;;;;;;7.40;66.61;101279.03;5364929;32;44415;-71
2022/11/28 07:20:04;;;;;;;;;;;;;;;7.72;66.03;101273.41;5328860;32;35116;-69
2022/11/28 07:23:06;;;;;;;;;;;;;;;7.69;66.02;101273.44;5362549;32;34906;-74
2022/11/28 07:26:08;;;;;;;;;;;;;;;7.71;65.65;101270.81;5339696;32;35451;-74
2022/11/28 07:29:16;;;;;;;;;;;;;;;7.62;65.84;101271.81;5353167;32;34431;-71
2022/11/28 07:32:18;;;;;;;;;;;;;;;7.41;67.04;101277.31;5373459;32;34440;-77
2022/11/28 07:35:20;;;;;;;;;;;;;;;7.73;66.20;101271.63;5354846;32;34397;-74
2022/11/28 07:38:22;;;;;;;;;;;;;;;7.96;65.03;101266.09;5366480;32;35753;-73
2022/11/28 07:41:24;;;;;;;;;;;;;;;7.82;63.63;101271.53;5339728;32;34237;-75
2022/11/28 07:44:27;;;;;;;;;;;;;;;7.91;63.81;101268.78;5344585;32;34361;-73
2022/11/28 07:47:29;;;;;;;;;;;;;;;7.73;63.88;101269.03;5353078;32;33765;-72
2022/11/28 07:50:31;;;;;;;;;;;;;;;7.53;63.87;101259.69;5349497;32;44171;-74
2022/11/28 07:53:33;;;;;;;;;;;;;;;7.45;64.30;101258.91;5359200;32;34379;-76
2022/11/28 07:56:36;;;;;;;;;;;;;;;7.86;63.46;101245.31;5355093;32;35594;-62
2022/11/28 07:59:58;;;;;;;;;;;;;;;7.20;64.01;101257.47;5344124;32;37565;-65
2022/11/28 08:03:00;;;;;;;;;;;;;;;7.66;63.67;101247.31;5333261;32;36039;-62
2022/11/28 08:06:02;;;;;;;;;;;;;;;7.94;63.34;101244.31;5342906;32;45215;-61
2022/11/28 08:09:05;;;;;;;;;;;;;;;8.12;62.30;101246.69;5346839;32;34297;-65
2022/11/28 08:12:07;;;;;;;;;;;;;;;7.92;62.29;101244.34;5349268;32;34360;-66
2022/11/28 08:15:09;;;;;;;;;;;;;;;7.78;62.59;101244.53;5357105;32;35498;-68
2022/11/28 08:18:11;;;;;;;;;;;;;;;8.20;60.59;101241.31;5350621;32;35624;-66
2022/11/28 08:21:18;;;;;;;;;;;;;;;7.99;60.34;101240.75;5345560;32;34654;-67
2022/11/28 08:24:20;;;;;;;;;;;;;;;8.20;60.22;101238.69;5344890;32;34434;-80
2022/11/28 08:27:22;;;;;;;;;;;;;;;7.78;60.10;101247.13;5346016;32;35066;-71
2022/11/28 08:30:25;;;;;;;;;;;;;;;8.02;60.60;101243.31;5362307;32;35531;-75
2022/11/28 08:33:27;;;;;;;;;;;;;;;8.09;60.56;101246.72;5331057;32;34434;-64
2022/11/28 08:36:29;;;;;;;;;;;;;;;8.32;58.83;101251.59;5353611;32;34293;-64
2022/11/28 08:39:32;;;;;;;;;;;;;;;8.57;57.44;101254.72;5338847;32;44256;-63
2022/11/28 08:42:34;;;;;;;;;;;;;;;8.20;56.55;101257.88;5351661;32;34776;-67
2022/11/28 08:45:36;;;;;;;;;;;;;;;8.65;55.36;101268.53;5353085;32;33813;-63
2022/11/28 08:48:38;;;;;;;;;;;;;;;8.09;56.06;101260.66;5339621;32;34272;-65
2022/11/28 08:51:40;;;;;;;;;;;;;;;7.79;57.59;101256.75;5361661;32;35127;-65
2022/11/28 08:54:42;;;;;;;;;;;;;;;8.16;56.55;101261.44;5349239;32;34352;-62
2022/11/28 08:57:45;;;;;;;;;;;;;;;8.33;56.46;101261.19;5357134;32;34294;-65
2022/11/28 09:00:47;;;;;;;;;;;;;;;8.54;56.15;101257.37;5346458;32;34247;-67
2022/11/28 09:03:49;;;;;;;;;;;;;;;8.57;55.97;101255.59;5353871;32;34686;-68
2022/11/28 09:06:51;;;;;;;;;;;;;;;7.97;58.11;101259.97;5340280;32;35146;-64
2022/11/28 09:09:53;;;;;;;;;;;;;;;7.57;58.61;101256.16;5349369;32;34293;-64
2022/11/28 09:12:55;;;;;;;;;;;;;;;8.05;58.13;101258.09;5351199;32;34354;-64
2022/11/28 09:16:03;;;;;;;;;;;;;;;8.56;55.90;101240.72;5407616;32;899233;-70
2022/11/28 09:19:07;;;;;;;;;;;;;;;8.44;56.04;101248.81;5430375;32;36343;-66
2022/11/28 09:22:10;;;;;;;;;;;;;;;8.06;54.31;101252.00;5430432;32;33957;-66
2022/11/28 09:25:12;;;;;;;;;;;;;;;8.08;54.44;101244.97;5446391;32;34441;-64
2022/11/28 09:28:15;;;;;;;;;;;;;;;8.29;52.79;101242.03;5439626;32;34156;-66
2022/11/28 09:31:17;;;;;;;;;;;;;;;7.48;55.58;101253.66;5448610;32;34322;-63
2022/11/28 09:34:20;;;;;;;;;;;;;;;8.46;53.53;101243.53;5447665;32;35647;-64
2022/11/28 09:37:22;;;;;;;;;;;;;;;7.75;54.74;101228.88;5431756;32;33998;-66
2022/11/28 09:40:39;;;;;;;;;;;;;;;8.45;53.89;101234.81;5456420;32;34038;-65
2022/11/28 09:43:42;;;;;;;;;;;;;;;8.57;53.10;101228.50;5455925;31;36291;-63
2022/11/28 09:46:44;;;;;;;;;;;;;;;7.51;55.65;101231.81;5443541;32;35378;-65
2022/11/28 09:49:54;;;;;;;;;;;;;;;8.32;55.09;101220.16;5445179;32;34221;-65
2022/11/28 09:52:56;;;;;;;;;;;;;;;8.90;53.03;101216.53;5440453;32;35888;-64
2022/11/28 09:55:59;;;;;;;;;;;;;;;8.58;53.82;101218.00;5446798;32;34138;-67
2022/11/28 09:59:03;;;;;;;;;;;;;;;8.03;55.88;101215.38;5425344;32;44249;-65
2022/11/28 10:02:24;;;;;;;;;;;;;;;8.48;54.53;101207.69;5437828;32;34338;-81
2022/11/28 10:05:30;;;;;;;;;;;;;;;8.31;55.13;101197.50;5443555;32;35851;-75
2022/11/28 10:08:50;;;;;;;;;;;;;;;8.47;54.15;101208.59;5447578;32;44381;-75
2022/11/28 10:12:11;;;;;;;;;;;;;;;7.85;55.05;101200.81;5463695;31;35514;-73
2022/11/28 10:15:14;;;;;;;;;;;;;;;7.57;56.64;101195.12;5446009;31;34330;-76
2022/11/28 10:18:28;;;;;;;;;;;;;;;7.17;57.99;101198.25;5437118;32;35526;-73
2022/11/28 10:21:30;;;;;;;;;;;;;;;7.63;56.55;101194.19;5429817;32;34515;-74
2022/11/28 10:24:36;;;;;;;;;;;;;;;7.77;56.32;101189.59;5423543;32;48297;-77
2022/11/28 10:27:38;;;;;;;;;;;;;;;8.11;54.97;101196.06;5419365;32;34330;-75
2022/11/28 10:30:41;;;;;;;;;;;;;;;7.66;56.04;101188.88;5423629;32;35349;-79
2022/11/28 10:33:47;;;;;;;;;;;;;;;6.82;58.82;101190.81;5432712;32;35324;-71
2022/11/28 10:36:52;;;;;;;;;;;;;;;7.47;57.65;101176.09;5425597;32;34269;-70
2022/11/28 10:39:54;;;;;;;;;;;;;;;7.71;56.57;101180.09;5429834;32;35499;-66
2022/11/28 10:42:56;;;;;;;;;;;;;;;8.06;55.67;101169.09;5416150;32;36288;-64
2022/11/28 10:45:58;;;;;;;;;;;;;;;7.53;57.54;101169.88;5426859;32;35671;-68
2022/11/28 10:49:04;;;;;;;;;;;;;;;8.37;54.80;101166.84;5402693;32;34379;-73
2022/11/28 10:52:16;;;;;;;;;;;;;;;8.01;55.64;101164.81;5410077;32;46195;-75
2022/11/28 10:55:27;;;;;;;;;;;;;;;6.90;58.52;101170.72;5420546;32;34212;-64
2022/11/28 10:58:38;;;;;;;;;;;;;;;6.61;60.51;101162.31;5414978;32;35435;-65
2022/11/28 11:01:40;;;;;;;;;;;;;;;6.83;60.03;101165.53;5407103;32;44483;-63
2022/11/28 11:04:49;;;;;;;;;;;;;;;7.83;57.08;101156.34;5404489;32;35740;-65
2022/11/28 11:07:55;;;;;;;;;;;;;;;8.15;56.01;101144.50;5401476;32;34332;-63
2022/11/28 11:10:57;;;;;;;;;;;;;;;8.52;55.04;101139.50;5415965;32;34226;-65
2022/11/28 11:14:00;;;;;;;;;;;;;;;8.06;56.29;101142.03;5399114;32;36039;-61
2022/11/28 11:17:02;;;;;;;;;;;;;;;8.38;55.29;101141.53;5391104;32;47860;-65
2022/11/28 11:20:18;;;;;;;;;;;;;;;7.36;57.31;101151.81;5410127;32;34072;-65
2022/11/28 11:23:25;;;;;;;;;;;;;;;8.31;55.54;101148.59;5404744;32;35654;-64
2022/11/28 11:26:28;;;;;;;;;;;;;;;7.31;59.06;101143.16;5425082;32;35288;-65
2022/11/28 11:29:34;;;;;;;;;;;;;;;8.48;55.29;101139.56;5421153;32;44707;-65
2022/11/28 11:32:36;;;;;;;;;;;;;;;7.98;56.53;101138.66;5411247;32;34298;-65
2022/11/28 11:35:46;;;;;;;;;;;;;;;8.12;57.00;101144.56;5418180;32;34197;-64
2022/11/28 11:38:48;;;;;;;;;;;;;;;8.24;56.96;101146.06;5410012;32;36117;-65
2022/11/28 11:41:51;;;;;;;;;;;;;;;8.84;53.37;101128.41;5433483;32;33693;-65
2022/11/28 11:44:53;;;;;;;;;;;;;;;8.95;53.27;101133.41;5414051;32;34550;-64
2022/11/28 11:47:55;;;;;;;;;;;;;;;8.54;53.05;101129.84;5419979;32;35071;-62
2022/11/28 11:50:57;;;;;;;;;;;;;;;8.70;51.53;101137.44;5404290;32;34205;-65
2022/11/28 11:54:01;;;;;;;;;;;;;;;8.18;53.14;101138.31;5398183;32;34040;-70
2022/11/28 11:57:03;;;;;;;;;;;;;;;8.29;53.21;101137.25;5426951;32;44407;-66
2022/11/28 12:00:46;;;;;;;;;;;;;;;8.19;53.68;101129.59;5414479;32;36305;-86
2022/11/28 12:03:55;;;;;;;;;;;;;;;8.41;53.47;101128.34;5432069;32;34588;-73
2022/11/28 12:06:57;;;;;;;;;;;;;;;8.65;52.69;101113.94;5401427;32;34087;-74
2022/11/28 12:09:59;;;;;;;;;;;;;;;8.75;51.65;101122.47;5402480;32;34110;-79
2022/11/28 12:13:07;;;;;;;;;;;;;;;8.21;53.28;101125.19;5420943;32;44381;-73
2022/11/28 12:16:15;;;;;;;;;;;;;;;8.54;52.88;101118.50;5417584;32;34328;-75
2022/11/28 12:19:44;;;;;;;;;;;;;;;8.55;52.84;101105.38;5406825;32;34756;-74
2022/11/28 12:22:46;;;;;;;;;;;;;;;8.26;53.82;101107.66;5385217;32;34323;-73
2022/11/28 12:25:49;;;;;;;;;;;;;;;8.47;52.94;101107.28;5419376;32;34412;-74
2022/11/28 12:28:54;;;;;;;;;;;;;;;8.05;55.18;101114.09;5408945;32;34689;-73
2022/11/28 12:31:59;;;;;;;;;;;;;;;8.65;52.73;101098.22;5414468;32;34307;-75
2022/11/28 12:35:01;;;;;;;;;;;;;;;8.15;53.90;101105.22;5431966;32;46673;-73
2022/11/28 12:38:21;;;;;;;;;;;;;;;8.44;54.19;101098.59;5396287;32;34883;-72
2022/11/28 12:41:29;;;;;;;;;;;;;;;8.63;53.27;101090.38;5419452;32;34207;-80
2022/11/28 12:44:56;;;;;;;;;;;;;;;8.66;53.81;101098.16;5426002;32;44614;-80
2022/11/28 12:48:07;;;;;;;;;;;;;;;8.94;53.02;101102.84;5393298;32;34681;-72
2022/11/28 12:51:09;;;;;;;;;;;;;;;8.87;52.86;101094.25;5422428;32;44958;-76
2022/11/28 12:54:21;;;;;;;;;;;;;;;8.82;53.14;101097.84;5413063;32;35763;-76
2022/11/28 12:57:33;;;;;;;;;;;;;;;8.54;54.46;101093.16;5420787;32;34531;-79
2022/11/28 13:00:39;;;;;;;;;;;;;;;8.74;54.15;101073.56;5418489;32;44518;-71
2022/11/28 13:04:01;;;;;;;;;;;;;;;8.53;55.06;101083.59;5394250;32;36695;-72
2022/11/28 13:07:06;;;;;;;;;;;;;;;8.50;55.05;101086.28;5411817;32;44869;-73
2022/11/28 13:10:14;;;;;;;;;;;;;;;7.74;57.06;101085.00;5408046;32;35589;-74
2022/11/28 13:13:22;;;;;;;;;;;;;;;8.38;55.99;101078.66;5426590;32;35261;-76
2022/11/28 13:16:24;;;;;;;;;;;;;;;8.26;55.90;101084.09;5413655;32;34122;-71
2022/11/28 13:19:28;;;;;;;;;;;;;;;8.60;55.94;101073.84;5398854;32;34051;-72
2022/11/28 13:22:38;;;;;;;;;;;;;;;8.84;55.11;101070.72;5419560;32;35504;-72
2022/11/28 13:25:49;;;;;;;;;;;;;;;8.41;56.01;101075.97;5418660;32;44948;-87
2022/11/28 13:28:53;;;;;;;;;;;;;;;8.68;55.29;101085.03;5430167;32;34143;-78
2022/11/28 13:31:58;;;;;;;;;;;;;;;8.02;56.37;101078.38;5425599;32;35438;-80
2022/11/28 13:35:03;;;;;;;;;;;;;;;8.36;55.74;101073.41;5406274;32;46685;-78
2022/11/28 13:38:11;;;;;;;;;;;;;;;8.48;55.46;101064.47;5432094;32;34371;-85
2022/11/28 13:41:51;;;;;;;;;;;;;;;8.40;55.91;101059.38;5424002;32;44788;-88
2022/11/28 13:45:20;;;;;;;;;;;;;;;8.69;55.60;101065.78;5422913;32;35853;-88
2022/11/28 13:48:33;;;;;;;;;;;;;;;8.62;55.34;101067.66;5424266;32;34565;-69
2022/11/28 13:52:24;;;;;;;;;;;;;;;8.70;54.89;101074.53;5424908;32;34620;-65
2022/11/28 13:55:35;;;;;;;;;;;;;;;8.39;56.02;101072.50;5396824;32;34349;-66
2022/11/28 13:58:51;;;;;;;;;;;;;;;8.29;56.25;101081.41;5413591;32;43709;-69
2022/11/28 14:01:56;;;;;;;;;;;;;;;8.05;57.49;101078.34;5393101;32;34586;-68
2022/11/28 14:04:59;;;;;;;;;;;;;;;7.99;58.09;101088.94;5419428;32;34374;-66
2022/11/28 14:08:01;;;;;;;;;;;;;;;7.70;58.61;101073.69;5400242;32;36469;-64
2022/11/28 14:11:22;;;;;;;;;;;;;;;7.66;59.32;101071.16;5412623;32;34327;-64
2022/11/28 14:14:47;;;;;;;;;;;;;;;7.52;60.02;101067.00;5410409;32;34408;-65
2022/11/28 14:17:58;;;;;;;;;;;;;;;7.54;60.08;101059.16;5408417;32;35827;-64
2022/11/28 14:21:19;;;;;;;;;;;;;;;7.98;58.83;101065.38;5390201;32;34455;-66
2022/11/28 14:24:35;;;;;;;;;;;;;;;7.99;58.48;101062.75;5391987;32;35405;-66
2022/11/28 14:27:37;;;;;;;;;;;;;;;7.13;61.18;101063.22;5397816;32;45426;-64
2022/11/28 14:30:40;;;;;;;;;;;;;;;7.71;59.73;101059.72;5406710;32;35502;-63
2022/11/28 14:33:42;;;;;;;;;;;;;;;7.82;59.25;101059.56;5389556;32;35510;-65
2022/11/28 14:36:44;;;;;;;;;;;;;;;7.85;59.08;101056.88;5418091;32;34421;-63
2022/11/28 14:39:50;;;;;;;;;;;;;;;7.80;59.34;101056.09;5399976;32;34343;-65
2022/11/28 14:43:10;;;;;;;;;;;;;;;7.70;59.03;101054.53;5415735;32;35063;-65
2022/11/28 14:46:26;;;;;;;;;;;;;;;7.70;59.18;101041.44;5385853;32;34973;-65
2022/11/28 14:49:28;;;;;;;;;;;;;;;7.22;61.83;101057.03;5385717;32;34195;-64
2022/11/28 14:52:36;;;;;;;;;;;;;;;7.99;58.76;101052.28;5434659;32;34105;-64
2022/11/28 14:55:41;;;;;;;;;;;;;;;7.71;59.45;101048.38;5425432;32;34372;-65
2022/11/28 14:58:46;;;;;;;;;;;;;;;7.89;59.22;101061.16;5428504;32;34220;-64
2022/11/28 15:01:55;;;;;;;;;;;;;;;7.39;60.08;101051.53;5404820;32;35942;-64
2022/11/28 15:05:16;;;;;;;;;;;;;;;7.63;59.09;101050.28;5422792;32;34417;-64
2022/11/28 15:08:28;;;;;;;;;;;;;;;7.59;59.33;101052.94;5422100;32;34475;-65
2022/11/28 15:11:42;;;;;;;;;;;;;;;7.15;60.76;101050.13;5392783;32;34029;-65
2022/11/28 15:14:44;;;;;;;;;;;;;;;7.36;60.01;101049.84;5421607;32;34287;-65
2022/11/28 15:17:47;;;;;;;;;;;;;;;7.07;60.98;101037.19;5409533;32;34214;-64
2022/11/28 15:20:52;;;;;;;;;;;;;;;7.30;60.59;101052.53;5391447;32;34821;-66
2022/11/28 15:23:55;;;;;;;;;;;;;;;7.22;60.17;101054.41;5408614;32;34531;-66
2022/11/28 15:27:06;;;;;;;;;;;;;;;7.17;59.87;101064.94;5398288;32;34225;-64
2022/11/28 15:30:15;;;;;;;;;;;;;;;7.43;59.68;101069.78;5422665;32;46342;-64
2022/11/28 15:33:17;;;;;;;;;;;;;;;7.30;59.75;101063.00;5415274;32;34177;-66
2022/11/28 15:36:26;;;;;;;;;;;;;;;7.16;60.26;101070.19;5417866;32;34400;-65
2022/11/28 15:39:29;;;;;;;;;;;;;;;7.20;60.39;101069.22;5417038;32;34269;-65
2022/11/28 15:42:34;;;;;;;;;;;;;;;6.96;60.61;101060.87;5395826;32;44557;-64
2022/11/28 15:45:36;;;;;;;;;;;;;;;6.68;61.34;101067.31;5426383;32;34710;-66
2022/11/28 15:48:46;;;;;;;;;;;;;;;6.71;61.49;101070.78;5418924;32;35540;-65
2022/11/28 15:51:52;;;;;;;;;;;;;;;7.09;60.83;101068.53;5428983;32;35686;-64
2022/11/28 15:54:54;;;;;;;;;;;;;;;6.65;62.15;101073.47;5413603;32;35515;-64
2022/11/28 15:58:10;;;;;;;;;;;;;;;6.92;61.36;101077.47;5390876;32;36081;-65
2022/11/28 16:01:19;;;;;;;;;;;;;;;7.00;61.25;101077.34;5424401;32;34312;-64
2022/11/28 16:04:21;;;;;;;;;;;;;;;6.52;62.32;101077.09;5401148;32;34597;-65
2022/11/28 16:07:23;;;;;;;;;;;;;;;6.21;62.26;101079.16;5410800;32;34364;-67
2022/11/28 16:10:25;;;;;;;;;;;;;;;6.55;62.72;101084.87;5418301;32;34253;-64